sensor_id;sensor_type;location;lat;lon;timestamp;temperature;humidity
32215;DHT22;18708;53.124;23.190;2024-01-11T00:01:46;-1.50;99.90
32215;DHT22;18708;53.124;23.190;2024-01-11T00:04:12;-1.50;99.90
32215;DHT22;18708;53.124;23.190;2024-01-11T00:06:44;-1.50;99.90
32215;DHT22;18708;53.124;23.190;2024-01-11T00:09:10;-1.40;99.90
32215;DHT22;18708;53.124;23.190;2024-01-11T00:11:36;-1.40;99.90
32215;DHT22;18708;53.124;23.190;2024-01-11T00:14:02;-1.50;99.90
32215;DHT22;18708;53.124;23.190;2024-01-11T00:16:27;-1.50;99.90
32215;DHT22;18708;53.124;23.190;2024-01-11T00:18:53;-1.40;99.90
32215;DHT22;18708;53.124;23.190;2024-01-11T00:21:19;-1.40;99.90
32215;DHT22;18708;53.124;23.190;2024-01-11T00:23:44;-1.40;99.90
32215;DHT22;18708;53.124;23.190;2024-01-11T00:26:13;-1.50;99.90
32215;DHT22;18708;53.124;23.190;2024-01-11T00:28:38;-1.40;99.90
32215;DHT22;18708;53.124;23.190;2024-01-11T00:31:04;-1.40;99.90
32215;DHT22;18708;53.124;23.190;2024-01-11T00:33:30;-1.40;99.90
32215;DHT22;18708;53.124;23.190;2024-01-11T00:35:56;-1.50;99.90
32215;DHT22;18708;53.124;23.190;2024-01-11T00:38:21;-1.50;99.90
32215;DHT22;18708;53.124;23.190;2024-01-11T00:40:47;-1.40;99.90
32215;DHT22;18708;53.124;23.190;2024-01-11T00:43:13;-1.40;99.90
32215;DHT22;18708;53.124;23.190;2024-01-11T00:45:38;-1.40;99.90
32215;DHT22;18708;53.124;23.190;2024-01-11T00:48:04;-1.40;99.90
32215;DHT22;18708;53.124;23.190;2024-01-11T00:50:30;-1.50;99.90
32215;DHT22;18708;53.124;23.190;2024-01-11T00:52:56;-1.40;99.90
32215;DHT22;18708;53.124;23.190;2024-01-11T00:55:22;-1.50;99.90
32215;DHT22;18708;53.124;23.190;2024-01-11T00:57:47;-1.50;99.90
32215;DHT22;18708;53.124;23.190;2024-01-11T01:00:13;-1.40;99.90
32215;DHT22;18708;53.124;23.190;2024-01-11T01:02:39;-1.40;99.90
32215;DHT22;18708;53.124;23.190;2024-01-11T01:05:05;-1.50;99.90
32215;DHT22;18708;53.124;23.190;2024-01-11T01:07:32;-1.50;99.90
32215;DHT22;18708;53.124;23.190;2024-01-11T01:09:57;-1.40;99.90
32215;DHT22;18708;53.124;23.190;2024-01-11T01:12:23;-1.40;99.90
32215;DHT22;18708;53.124;23.190;2024-01-11T01:14:51;-1.40;99.90
32215;DHT22;18708;53.124;23.190;2024-01-11T01:17:16;-1.50;99.90
32215;DHT22;18708;53.124;23.190;2024-01-11T01:19:43;-1.50;99.90
32215;DHT22;18708;53.124;23.190;2024-01-11T01:22:09;-1.50;99.90
32215;DHT22;18708;53.124;23.190;2024-01-11T01:24:34;-1.50;99.90
32215;DHT22;18708;53.124;23.190;2024-01-11T01:27:00;-1.50;99.90
32215;DHT22;18708;53.124;23.190;2024-01-11T01:29:26;-1.50;99.90
32215;DHT22;18708;53.124;23.190;2024-01-11T01:31:52;-1.50;99.90
32215;DHT22;18708;53.124;23.190;2024-01-11T01:34:18;-1.50;99.90
32215;DHT22;18708;53.124;23.190;2024-01-11T01:36:44;-1.40;99.90
32215;DHT22;18708;53.124;23.190;2024-01-11T01:39:10;-1.50;99.90
32215;DHT22;18708;53.124;23.190;2024-01-11T01:41:36;-1.40;99.90
32215;DHT22;18708;53.124;23.190;2024-01-11T01:44:02;-1.40;99.90
32215;DHT22;18708;53.124;23.190;2024-01-11T01:46:28;-1.40;99.90
32215;DHT22;18708;53.124;23.190;2024-01-11T01:48:55;-1.40;99.90
32215;DHT22;18708;53.124;23.190;2024-01-11T01:51:24;-1.40;99.90
32215;DHT22;18708;53.124;23.190;2024-01-11T01:53:52;-1.40;99.90
32215;DHT22;18708;53.124;23.190;2024-01-11T01:56:19;-1.40;99.90
32215;DHT22;18708;53.124;23.190;2024-01-11T01:58:45;-1.40;99.90
32215;DHT22;18708;53.124;23.190;2024-01-11T02:01:12;-1.40;99.90
32215;DHT22;18708;53.124;23.190;2024-01-11T02:03:38;-1.40;99.90
32215;DHT22;18708;53.124;23.190;2024-01-11T02:06:05;-1.30;99.90
32215;DHT22;18708;53.124;23.190;2024-01-11T02:08:32;-1.40;99.90
32215;DHT22;18708;53.124;23.190;2024-01-11T02:10:59;-1.30;99.90
32215;DHT22;18708;53.124;23.190;2024-01-11T02:13:25;-1.30;99.90
32215;DHT22;18708;53.124;23.190;2024-01-11T02:15:51;-1.30;99.90
32215;DHT22;18708;53.124;23.190;2024-01-11T02:18:17;-1.30;99.90
32215;DHT22;18708;53.124;23.190;2024-01-11T02:20:42;-1.30;99.90
32215;DHT22;18708;53.124;23.190;2024-01-11T02:23:12;-1.40;99.90
32215;DHT22;18708;53.124;23.190;2024-01-11T02:25:40;-1.30;99.90
32215;DHT22;18708;53.124;23.190;2024-01-11T02:28:05;-1.30;99.90
32215;DHT22;18708;53.124;23.190;2024-01-11T02:30:31;-1.30;99.90
32215;DHT22;18708;53.124;23.190;2024-01-11T02:32:57;-1.30;99.90
32215;DHT22;18708;53.124;23.190;2024-01-11T02:35:24;-1.30;99.90
32215;DHT22;18708;53.124;23.190;2024-01-11T02:37:51;-1.30;99.90
32215;DHT22;18708;53.124;23.190;2024-01-11T02:40:19;-1.30;99.90
32215;DHT22;18708;53.124;23.190;2024-01-11T02:42:45;-1.30;99.90
32215;DHT22;18708;53.124;23.190;2024-01-11T02:45:12;-1.30;99.90
32215;DHT22;18708;53.124;23.190;2024-01-11T02:47:38;-1.40;99.90
32215;DHT22;18708;53.124;23.190;2024-01-11T02:50:05;-1.40;99.90
32215;DHT22;18708;53.124;23.190;2024-01-11T02:52:31;-1.40;99.90
32215;DHT22;18708;53.124;23.190;2024-01-11T02:54:57;-1.30;99.90
32215;DHT22;18708;53.124;23.190;2024-01-11T02:57:23;-1.30;99.90
32215;DHT22;18708;53.124;23.190;2024-01-11T02:59:50;-1.30;99.90
32215;DHT22;18708;53.124;23.190;2024-01-11T03:02:16;-1.40;99.90
32215;DHT22;18708;53.124;23.190;2024-01-11T03:04:42;-1.40;99.90
32215;DHT22;18708;53.124;23.190;2024-01-11T03:07:08;-1.40;99.90
32215;DHT22;18708;53.124;23.190;2024-01-11T03:09:33;-1.40;99.90
32215;DHT22;18708;53.124;23.190;2024-01-11T03:12:00;-1.40;99.90
32215;DHT22;18708;53.124;23.190;2024-01-11T03:14:25;-1.40;99.90
32215;DHT22;18708;53.124;23.190;2024-01-11T03:16:51;-1.40;99.90
32215;DHT22;18708;53.124;23.190;2024-01-11T03:19:17;-1.40;99.90
32215;DHT22;18708;53.124;23.190;2024-01-11T03:21:44;-1.30;99.90
32215;DHT22;18708;53.124;23.190;2024-01-11T03:24:09;-1.40;99.90
32215;DHT22;18708;53.124;23.190;2024-01-11T03:26:35;-1.30;99.90
32215;DHT22;18708;53.124;23.190;2024-01-11T03:29:01;-1.30;99.90
32215;DHT22;18708;53.124;23.190;2024-01-11T03:31:26;-1.30;99.90
32215;DHT22;18708;53.124;23.190;2024-01-11T03:33:52;-1.40;99.90
32215;DHT22;18708;53.124;23.190;2024-01-11T03:36:18;-1.40;99.90
32215;DHT22;18708;53.124;23.190;2024-01-11T03:38:43;-1.50;99.90
32215;DHT22;18708;53.124;23.190;2024-01-11T03:41:09;-1.50;99.90
32215;DHT22;18708;53.124;23.190;2024-01-11T03:43:36;-1.50;99.90
32215;DHT22;18708;53.124;23.190;2024-01-11T03:46:02;-1.50;99.90
32215;DHT22;18708;53.124;23.190;2024-01-11T03:48:27;-1.50;99.90
32215;DHT22;18708;53.124;23.190;2024-01-11T03:50:53;-1.50;99.90
32215;DHT22;18708;53.124;23.190;2024-01-11T03:53:19;-1.40;99.90
32215;DHT22;18708;53.124;23.190;2024-01-11T03:55:44;-1.50;99.90
32215;DHT22;18708;53.124;23.190;2024-01-11T03:58:10;-1.50;99.90
32215;DHT22;18708;53.124;23.190;2024-01-11T04:00:35;-1.50;99.90
32215;DHT22;18708;53.124;23.190;2024-01-11T04:03:01;-1.50;99.90
32215;DHT22;18708;53.124;23.190;2024-01-11T04:05:27;-1.50;99.90
32215;DHT22;18708;53.124;23.190;2024-01-11T04:07:53;-1.50;99.90
32215;DHT22;18708;53.124;23.190;2024-01-11T04:10:19;-1.50;99.90
32215;DHT22;18708;53.124;23.190;2024-01-11T04:12:44;-1.60;99.90
32215;DHT22;18708;53.124;23.190;2024-01-11T04:15:13;-1.60;99.90
32215;DHT22;18708;53.124;23.190;2024-01-11T04:17:39;-1.50;99.90
32215;DHT22;18708;53.124;23.190;2024-01-11T04:20:06;-1.50;99.90
32215;DHT22;18708;53.124;23.190;2024-01-11T04:22:32;-1.50;99.90
32215;DHT22;18708;53.124;23.190;2024-01-11T04:24:58;-1.50;99.90
32215;DHT22;18708;53.124;23.190;2024-01-11T04:27:23;-1.50;99.90
32215;DHT22;18708;53.124;23.190;2024-01-11T04:29:49;-1.50;99.90
32215;DHT22;18708;53.124;23.190;2024-01-11T04:32:15;-1.50;99.90
32215;DHT22;18708;53.124;23.190;2024-01-11T04:34:40;-1.50;99.90
32215;DHT22;18708;53.124;23.190;2024-01-11T04:37:06;-1.50;99.90
32215;DHT22;18708;53.124;23.190;2024-01-11T04:39:32;-1.30;99.90
32215;DHT22;18708;53.124;23.190;2024-01-11T04:41:59;-1.40;99.90
32215;DHT22;18708;53.124;23.190;2024-01-11T04:44:26;-1.40;99.90
32215;DHT22;18708;53.124;23.190;2024-01-11T04:46:51;-1.30;99.90
32215;DHT22;18708;53.124;23.190;2024-01-11T04:49:17;-1.40;99.90
32215;DHT22;18708;53.124;23.190;2024-01-11T04:51:43;-1.30;99.90
32215;DHT22;18708;53.124;23.190;2024-01-11T04:54:08;-1.30;99.90
32215;DHT22;18708;53.124;23.190;2024-01-11T04:56:34;-1.40;99.90
32215;DHT22;18708;53.124;23.190;2024-01-11T04:59:00;-1.40;99.90
32215;DHT22;18708;53.124;23.190;2024-01-11T05:01:25;-1.30;99.90
32215;DHT22;18708;53.124;23.190;2024-01-11T05:03:51;-1.30;99.90
32215;DHT22;18708;53.124;23.190;2024-01-11T05:06:17;-1.30;99.90
32215;DHT22;18708;53.124;23.190;2024-01-11T05:08:44;-1.30;99.90
32215;DHT22;18708;53.124;23.190;2024-01-11T05:11:17;-1.30;99.90
32215;DHT22;18708;53.124;23.190;2024-01-11T05:13:43;-1.30;99.90
32215;DHT22;18708;53.124;23.190;2024-01-11T05:16:24;-1.30;99.90
32215;DHT22;18708;53.124;23.190;2024-01-11T05:18:51;-1.20;99.90
32215;DHT22;18708;53.124;23.190;2024-01-11T05:21:17;-1.30;99.90
32215;DHT22;18708;53.124;23.190;2024-01-11T05:23:43;-1.20;99.90
32215;DHT22;18708;53.124;23.190;2024-01-11T05:26:09;-1.20;99.90
32215;DHT22;18708;53.124;23.190;2024-01-11T05:28:35;-1.20;99.90
32215;DHT22;18708;53.124;23.190;2024-01-11T05:31:01;-1.20;99.90
32215;DHT22;18708;53.124;23.190;2024-01-11T05:33:27;-1.20;99.90
32215;DHT22;18708;53.124;23.190;2024-01-11T05:35:53;-1.20;99.90
32215;DHT22;18708;53.124;23.190;2024-01-11T05:38:19;-1.20;99.90
32215;DHT22;18708;53.124;23.190;2024-01-11T05:40:45;-1.20;99.90
32215;DHT22;18708;53.124;23.190;2024-01-11T05:43:11;-1.20;99.90
32215;DHT22;18708;53.124;23.190;2024-01-11T05:45:36;-1.20;99.90
32215;DHT22;18708;53.124;23.190;2024-01-11T05:48:02;-1.20;99.90
32215;DHT22;18708;53.124;23.190;2024-01-11T05:50:28;-1.20;99.90
32215;DHT22;18708;53.124;23.190;2024-01-11T05:52:54;-1.20;99.90
32215;DHT22;18708;53.124;23.190;2024-01-11T05:55:21;-1.20;99.90
32215;DHT22;18708;53.124;23.190;2024-01-11T05:57:47;-1.10;99.90
32215;DHT22;18708;53.124;23.190;2024-01-11T06:00:13;-1.10;99.90
32215;DHT22;18708;53.124;23.190;2024-01-11T06:02:39;-1.10;99.90
32215;DHT22;18708;53.124;23.190;2024-01-11T06:05:08;-1.10;99.90
32215;DHT22;18708;53.124;23.190;2024-01-11T06:07:34;-1.10;99.90
32215;DHT22;18708;53.124;23.190;2024-01-11T06:10:00;-1.10;99.90
32215;DHT22;18708;53.124;23.190;2024-01-11T06:12:28;-1.10;99.90
32215;DHT22;18708;53.124;23.190;2024-01-11T06:14:54;-1.00;99.90
32215;DHT22;18708;53.124;23.190;2024-01-11T06:17:20;-1.00;99.90
32215;DHT22;18708;53.124;23.190;2024-01-11T06:19:46;-1.00;99.90
32215;DHT22;18708;53.124;23.190;2024-01-11T06:22:11;-1.10;99.90
32215;DHT22;18708;53.124;23.190;2024-01-11T06:24:37;-1.00;99.90
32215;DHT22;18708;53.124;23.190;2024-01-11T06:27:03;-1.00;99.90
32215;DHT22;18708;53.124;23.190;2024-01-11T06:29:28;-0.90;99.90
32215;DHT22;18708;53.124;23.190;2024-01-11T06:31:54;-0.90;99.90
32215;DHT22;18708;53.124;23.190;2024-01-11T06:34:19;-0.90;99.90
32215;DHT22;18708;53.124;23.190;2024-01-11T06:36:45;-0.90;99.90
32215;DHT22;18708;53.124;23.190;2024-01-11T06:39:11;-0.90;99.90
32215;DHT22;18708;53.124;23.190;2024-01-11T06:41:38;-0.90;99.90
32215;DHT22;18708;53.124;23.190;2024-01-11T06:44:04;-0.90;99.90
32215;DHT22;18708;53.124;23.190;2024-01-11T06:46:29;-0.90;99.90
32215;DHT22;18708;53.124;23.190;2024-01-11T06:48:56;-0.90;99.90
32215;DHT22;18708;53.124;23.190;2024-01-11T06:51:22;-0.80;99.90
32215;DHT22;18708;53.124;23.190;2024-01-11T06:53:48;-0.80;99.90
32215;DHT22;18708;53.124;23.190;2024-01-11T06:56:15;-0.80;99.90
32215;DHT22;18708;53.124;23.190;2024-01-11T06:58:42;-0.80;99.90
32215;DHT22;18708;53.124;23.190;2024-01-11T07:01:08;-0.70;99.90
32215;DHT22;18708;53.124;23.190;2024-01-11T07:03:34;-0.70;99.90
32215;DHT22;18708;53.124;23.190;2024-01-11T07:05:59;-0.80;99.90
32215;DHT22;18708;53.124;23.190;2024-01-11T07:08:25;-0.70;99.90
32215;DHT22;18708;53.124;23.190;2024-01-11T07:10:51;-0.70;99.90
32215;DHT22;18708;53.124;23.190;2024-01-11T07:13:16;-0.70;99.90
32215;DHT22;18708;53.124;23.190;2024-01-11T07:15:43;-0.60;99.90
32215;DHT22;18708;53.124;23.190;2024-01-11T07:18:09;-0.60;99.90
32215;DHT22;18708;53.124;23.190;2024-01-11T07:20:34;-0.60;99.90
32215;DHT22;18708;53.124;23.190;2024-01-11T07:23:00;-0.60;99.90
32215;DHT22;18708;53.124;23.190;2024-01-11T07:25:26;-0.50;99.90
32215;DHT22;18708;53.124;23.190;2024-01-11T07:27:51;-0.50;99.90
32215;DHT22;18708;53.124;23.190;2024-01-11T07:30:17;-0.50;99.90
32215;DHT22;18708;53.124;23.190;2024-01-11T07:32:46;-0.50;99.90
32215;DHT22;18708;53.124;23.190;2024-01-11T07:35:12;-0.50;99.90
32215;DHT22;18708;53.124;23.190;2024-01-11T07:37:38;-0.50;99.90
32215;DHT22;18708;53.124;23.190;2024-01-11T07:40:05;-0.50;99.90
32215;DHT22;18708;53.124;23.190;2024-01-11T07:42:36;-0.40;99.90
32215;DHT22;18708;53.124;23.190;2024-01-11T07:45:02;-0.40;99.90
32215;DHT22;18708;53.124;23.190;2024-01-11T07:47:28;-0.40;99.90
32215;DHT22;18708;53.124;23.190;2024-01-11T07:49:55;-0.50;99.90
32215;DHT22;18708;53.124;23.190;2024-01-11T07:52:20;-0.40;99.90
32215;DHT22;18708;53.124;23.190;2024-01-11T07:54:46;-0.40;99.90
32215;DHT22;18708;53.124;23.190;2024-01-11T07:57:12;-0.30;99.90
32215;DHT22;18708;53.124;23.190;2024-01-11T07:59:38;-0.30;99.90
32215;DHT22;18708;53.124;23.190;2024-01-11T08:02:04;-0.30;99.90
32215;DHT22;18708;53.124;23.190;2024-01-11T08:04:31;-0.30;99.90
32215;DHT22;18708;53.124;23.190;2024-01-11T08:06:57;-0.20;99.90
32215;DHT22;18708;53.124;23.190;2024-01-11T08:09:25;-0.30;99.90
32215;DHT22;18708;53.124;23.190;2024-01-11T08:11:51;-0.20;99.90
32215;DHT22;18708;53.124;23.190;2024-01-11T08:14:20;-0.20;99.90
32215;DHT22;18708;53.124;23.190;2024-01-11T08:16:45;-0.20;99.90
32215;DHT22;18708;53.124;23.190;2024-01-11T08:19:11;-0.20;99.90
32215;DHT22;18708;53.124;23.190;2024-01-11T08:21:39;-0.20;99.90
32215;DHT22;18708;53.124;23.190;2024-01-11T08:24:05;-0.20;99.90
32215;DHT22;18708;53.124;23.190;2024-01-11T08:26:32;-0.10;99.90
32215;DHT22;18708;53.124;23.190;2024-01-11T08:28:57;-0.20;99.90
32215;DHT22;18708;53.124;23.190;2024-01-11T08:31:23;-0.10;99.90
32215;DHT22;18708;53.124;23.190;2024-01-11T08:33:49;-0.10;99.90
32215;DHT22;18708;53.124;23.190;2024-01-11T08:36:16;-0.10;99.90
32215;DHT22;18708;53.124;23.190;2024-01-11T08:38:41;-0.10;99.90
32215;DHT22;18708;53.124;23.190;2024-01-11T08:41:07;0.00;99.90
32215;DHT22;18708;53.124;23.190;2024-01-11T08:43:33;0.00;99.90
32215;DHT22;18708;53.124;23.190;2024-01-11T08:45:59;0.00;99.90
32215;DHT22;18708;53.124;23.190;2024-01-11T08:48:25;0.20;99.90
32215;DHT22;18708;53.124;23.190;2024-01-11T08:50:50;0.10;99.90
32215;DHT22;18708;53.124;23.190;2024-01-11T08:53:16;0.10;99.90
32215;DHT22;18708;53.124;23.190;2024-01-11T08:55:42;0.10;99.90
32215;DHT22;18708;53.124;23.190;2024-01-11T08:58:08;0.10;99.90
32215;DHT22;18708;53.124;23.190;2024-01-11T09:00:34;0.20;99.90
32215;DHT22;18708;53.124;23.190;2024-01-11T09:03:00;0.20;99.90
32215;DHT22;18708;53.124;23.190;2024-01-11T09:05:26;0.20;99.90
32215;DHT22;18708;53.124;23.190;2024-01-11T09:07:51;0.30;99.90
32215;DHT22;18708;53.124;23.190;2024-01-11T09:10:17;0.30;99.90
32215;DHT22;18708;53.124;23.190;2024-01-11T09:12:43;0.30;99.90
32215;DHT22;18708;53.124;23.190;2024-01-11T09:15:09;0.30;99.90
32215;DHT22;18708;53.124;23.190;2024-01-11T09:17:35;0.40;99.90
32215;DHT22;18708;53.124;23.190;2024-01-11T09:20:02;0.40;99.90
32215;DHT22;18708;53.124;23.190;2024-01-11T09:22:28;0.50;99.90
32215;DHT22;18708;53.124;23.190;2024-01-11T09:24:53;0.50;99.90
32215;DHT22;18708;53.124;23.190;2024-01-11T09:27:19;0.50;99.90
32215;DHT22;18708;53.124;23.190;2024-01-11T09:29:45;0.50;99.90
32215;DHT22;18708;53.124;23.190;2024-01-11T09:32:14;0.50;99.90
32215;DHT22;18708;53.124;23.190;2024-01-11T09:34:40;0.60;99.90
32215;DHT22;18708;53.124;23.190;2024-01-11T09:37:05;0.50;99.90
32215;DHT22;18708;53.124;23.190;2024-01-11T09:39:31;0.60;99.90
32215;DHT22;18708;53.124;23.190;2024-01-11T09:42:06;0.60;99.90
32215;DHT22;18708;53.124;23.190;2024-01-11T09:44:33;0.60;99.90
32215;DHT22;18708;53.124;23.190;2024-01-11T09:47:02;0.70;99.90
32215;DHT22;18708;53.124;23.190;2024-01-11T09:49:30;0.70;99.90
32215;DHT22;18708;53.124;23.190;2024-01-11T09:51:57;0.70;99.90
32215;DHT22;18708;53.124;23.190;2024-01-11T09:54:23;0.70;99.90
32215;DHT22;18708;53.124;23.190;2024-01-11T09:56:50;0.70;99.90
32215;DHT22;18708;53.124;23.190;2024-01-11T09:59:20;0.70;99.90
32215;DHT22;18708;53.124;23.190;2024-01-11T10:01:47;0.80;99.90
32215;DHT22;18708;53.124;23.190;2024-01-11T10:04:14;0.80;99.90
32215;DHT22;18708;53.124;23.190;2024-01-11T10:06:41;0.80;99.90
32215;DHT22;18708;53.124;23.190;2024-01-11T10:09:07;0.80;99.90
32215;DHT22;18708;53.124;23.190;2024-01-11T10:11:33;0.90;99.90
32215;DHT22;18708;53.124;23.190;2024-01-11T10:14:00;0.90;99.90
32215;DHT22;18708;53.124;23.190;2024-01-11T10:16:28;0.90;99.90
32215;DHT22;18708;53.124;23.190;2024-01-11T10:18:55;0.90;99.90
32215;DHT22;18708;53.124;23.190;2024-01-11T10:21:21;1.00;99.90
32215;DHT22;18708;53.124;23.190;2024-01-11T10:23:47;1.00;99.90
32215;DHT22;18708;53.124;23.190;2024-01-11T10:26:17;1.00;99.90
32215;DHT22;18708;53.124;23.190;2024-01-11T10:28:47;1.00;99.90
32215;DHT22;18708;53.124;23.190;2024-01-11T10:31:13;1.00;99.90
32215;DHT22;18708;53.124;23.190;2024-01-11T10:33:42;1.10;99.90
32215;DHT22;18708;53.124;23.190;2024-01-11T10:36:08;1.10;99.90
32215;DHT22;18708;53.124;23.190;2024-01-11T10:38:38;1.10;99.90
32215;DHT22;18708;53.124;23.190;2024-01-11T10:41:07;1.10;99.90
32215;DHT22;18708;53.124;23.190;2024-01-11T10:43:37;1.20;99.90
32215;DHT22;18708;53.124;23.190;2024-01-11T10:46:06;1.20;99.90
32215;DHT22;18708;53.124;23.190;2024-01-11T10:48:38;1.20;99.90
32215;DHT22;18708;53.124;23.190;2024-01-11T10:51:09;1.20;99.90
32215;DHT22;18708;53.124;23.190;2024-01-11T10:53:45;1.20;99.90
32215;DHT22;18708;53.124;23.190;2024-01-11T10:56:12;1.30;99.90
32215;DHT22;18708;53.124;23.190;2024-01-11T10:58:42;1.30;99.90
32215;DHT22;18708;53.124;23.190;2024-01-11T11:01:12;1.30;99.90
32215;DHT22;18708;53.124;23.190;2024-01-11T11:03:41;1.30;99.90
32215;DHT22;18708;53.124;23.190;2024-01-11T11:06:09;1.30;99.90
32215;DHT22;18708;53.124;23.190;2024-01-11T11:08:36;1.30;99.90
32215;DHT22;18708;53.124;23.190;2024-01-11T11:11:03;1.20;99.90
32215;DHT22;18708;53.124;23.190;2024-01-11T11:13:33;1.30;99.90
32215;DHT22;18708;53.124;23.190;2024-01-11T11:16:02;1.20;99.90
32215;DHT22;18708;53.124;23.190;2024-01-11T11:18:32;1.20;99.90
32215;DHT22;18708;53.124;23.190;2024-01-11T11:21:00;1.30;99.90
32215;DHT22;18708;53.124;23.190;2024-01-11T11:23:26;1.30;99.90
32215;DHT22;18708;53.124;23.190;2024-01-11T11:25:54;1.30;99.90
32215;DHT22;18708;53.124;23.190;2024-01-11T11:28:21;1.30;99.90
32215;DHT22;18708;53.124;23.190;2024-01-11T11:30:49;1.30;99.90
32215;DHT22;18708;53.124;23.190;2024-01-11T11:33:23;1.30;99.90
32215;DHT22;18708;53.124;23.190;2024-01-11T11:35:52;1.30;99.90
32215;DHT22;18708;53.124;23.190;2024-01-11T11:38:27;1.30;99.90
32215;DHT22;18708;53.124;23.190;2024-01-11T11:40:59;1.30;99.90
32215;DHT22;18708;53.124;23.190;2024-01-11T11:43:29;1.30;99.90
32215;DHT22;18708;53.124;23.190;2024-01-11T11:45:57;1.30;99.90
32215;DHT22;18708;53.124;23.190;2024-01-11T11:51:13;1.30;99.90
32215;DHT22;18708;53.124;23.190;2024-01-11T11:53:41;1.30;99.90
32215;DHT22;18708;53.124;23.190;2024-01-11T11:56:08;1.30;99.90
32215;DHT22;18708;53.124;23.190;2024-01-11T11:58:38;1.30;99.90
32215;DHT22;18708;53.124;23.190;2024-01-11T12:01:04;1.30;99.90
32215;DHT22;18708;53.124;23.190;2024-01-11T12:03:34;1.30;99.90
32215;DHT22;18708;53.124;23.190;2024-01-11T12:06:04;1.40;99.90
32215;DHT22;18708;53.124;23.190;2024-01-11T12:08:31;1.40;99.90
32215;DHT22;18708;53.124;23.190;2024-01-11T12:10:57;1.40;99.90
32215;DHT22;18708;53.124;23.190;2024-01-11T12:13:23;1.40;99.90
32215;DHT22;18708;53.124;23.190;2024-01-11T12:15:49;1.40;99.90
32215;DHT22;18708;53.124;23.190;2024-01-11T12:18:15;1.50;99.90
32215;DHT22;18708;53.124;23.190;2024-01-11T12:20:43;1.50;99.90
32215;DHT22;18708;53.124;23.190;2024-01-11T12:23:09;1.50;99.90
32215;DHT22;18708;53.124;23.190;2024-01-11T12:25:35;1.50;99.90
32215;DHT22;18708;53.124;23.190;2024-01-11T12:28:01;1.50;99.90
32215;DHT22;18708;53.124;23.190;2024-01-11T12:30:27;1.50;99.90
32215;DHT22;18708;53.124;23.190;2024-01-11T12:32:55;1.50;99.90
32215;DHT22;18708;53.124;23.190;2024-01-11T12:35:22;1.50;99.90
32215;DHT22;18708;53.124;23.190;2024-01-11T12:37:58;1.60;99.90
32215;DHT22;18708;53.124;23.190;2024-01-11T12:40:24;1.60;99.90
32215;DHT22;18708;53.124;23.190;2024-01-11T12:42:50;1.60;99.90
32215;DHT22;18708;53.124;23.190;2024-01-11T12:45:19;1.60;99.90
32215;DHT22;18708;53.124;23.190;2024-01-11T12:47:48;1.70;99.90
32215;DHT22;18708;53.124;23.190;2024-01-11T12:50:14;1.70;99.90
32215;DHT22;18708;53.124;23.190;2024-01-11T12:52:40;1.70;99.90
32215;DHT22;18708;53.124;23.190;2024-01-11T12:55:08;1.70;99.90
32215;DHT22;18708;53.124;23.190;2024-01-11T12:57:43;1.80;99.90
32215;DHT22;18708;53.124;23.190;2024-01-11T13:00:13;1.80;99.90
32215;DHT22;18708;53.124;23.190;2024-01-11T13:02:41;1.80;99.90
32215;DHT22;18708;53.124;23.190;2024-01-11T13:05:09;1.80;99.90
32215;DHT22;18708;53.124;23.190;2024-01-11T13:07:37;1.80;99.90
32215;DHT22;18708;53.124;23.190;2024-01-11T13:10:03;1.80;99.90
32215;DHT22;18708;53.124;23.190;2024-01-11T13:12:30;1.80;99.90
32215;DHT22;18708;53.124;23.190;2024-01-11T13:14:57;1.80;99.90
32215;DHT22;18708;53.124;23.190;2024-01-11T13:17:24;1.80;99.90
32215;DHT22;18708;53.124;23.190;2024-01-11T13:19:50;1.90;99.90
32215;DHT22;18708;53.124;23.190;2024-01-11T13:22:15;1.90;99.90
32215;DHT22;18708;53.124;23.190;2024-01-11T13:24:41;1.90;99.90
32215;DHT22;18708;53.124;23.190;2024-01-11T13:27:07;1.90;99.90
32215;DHT22;18708;53.124;23.190;2024-01-11T13:29:32;1.90;99.90
32215;DHT22;18708;53.124;23.190;2024-01-11T13:31:58;1.90;99.90
32215;DHT22;18708;53.124;23.190;2024-01-11T13:34:23;1.90;99.90
32215;DHT22;18708;53.124;23.190;2024-01-11T13:36:49;1.90;99.90
32215;DHT22;18708;53.124;23.190;2024-01-11T13:39:15;1.90;99.90
32215;DHT22;18708;53.124;23.190;2024-01-11T13:41:43;1.90;99.90
32215;DHT22;18708;53.124;23.190;2024-01-11T13:44:09;1.90;99.90
32215;DHT22;18708;53.124;23.190;2024-01-11T13:46:35;1.90;99.90
32215;DHT22;18708;53.124;23.190;2024-01-11T13:49:01;1.90;99.90
32215;DHT22;18708;53.124;23.190;2024-01-11T13:51:28;1.80;99.90
32215;DHT22;18708;53.124;23.190;2024-01-11T13:53:54;2.10;99.90
32215;DHT22;18708;53.124;23.190;2024-01-11T13:56:19;1.80;99.90
32215;DHT22;18708;53.124;23.190;2024-01-11T13:58:45;1.70;99.90
32215;DHT22;18708;53.124;23.190;2024-01-11T14:01:11;1.70;99.90
32215;DHT22;18708;53.124;23.190;2024-01-11T14:03:38;1.70;99.90
32215;DHT22;18708;53.124;23.190;2024-01-11T14:06:04;1.70;99.90
32215;DHT22;18708;53.124;23.190;2024-01-11T14:08:32;1.70;99.90
32215;DHT22;18708;53.124;23.190;2024-01-11T14:10:58;1.70;99.90
32215;DHT22;18708;53.124;23.190;2024-01-11T14:13:24;1.60;99.90
32215;DHT22;18708;53.124;23.190;2024-01-11T14:15:49;1.70;99.90
32215;DHT22;18708;53.124;23.190;2024-01-11T14:18:16;1.70;99.90
32215;DHT22;18708;53.124;23.190;2024-01-11T14:20:44;1.70;99.90
32215;DHT22;18708;53.124;23.190;2024-01-11T14:23:09;1.70;99.90
32215;DHT22;18708;53.124;23.190;2024-01-11T14:25:35;1.60;99.90
32215;DHT22;18708;53.124;23.190;2024-01-11T14:28:01;1.70;99.90
32215;DHT22;18708;53.124;23.190;2024-01-11T14:30:26;1.70;99.90
32215;DHT22;18708;53.124;23.190;2024-01-11T14:32:52;1.70;99.90
32215;DHT22;18708;53.124;23.190;2024-01-11T14:35:18;1.70;99.90
32215;DHT22;18708;53.124;23.190;2024-01-11T14:37:44;1.70;99.90
32215;DHT22;18708;53.124;23.190;2024-01-11T14:40:10;1.70;99.90
32215;DHT22;18708;53.124;23.190;2024-01-11T14:42:36;1.70;99.90
32215;DHT22;18708;53.124;23.190;2024-01-11T14:45:02;1.70;99.90
32215;DHT22;18708;53.124;23.190;2024-01-11T14:47:29;1.70;99.90
32215;DHT22;18708;53.124;23.190;2024-01-11T14:49:57;1.70;99.90
32215;DHT22;18708;53.124;23.190;2024-01-11T14:52:23;1.80;99.90
32215;DHT22;18708;53.124;23.190;2024-01-11T14:54:48;1.70;99.90
32215;DHT22;18708;53.124;23.190;2024-01-11T14:57:15;1.70;99.90
32215;DHT22;18708;53.124;23.190;2024-01-11T14:59:40;1.70;99.90
32215;DHT22;18708;53.124;23.190;2024-01-11T15:02:06;1.80;99.90
32215;DHT22;18708;53.124;23.190;2024-01-11T15:04:32;1.80;99.90
32215;DHT22;18708;53.124;23.190;2024-01-11T15:06:58;1.80;99.90
32215;DHT22;18708;53.124;23.190;2024-01-11T15:09:23;1.80;99.90
32215;DHT22;18708;53.124;23.190;2024-01-11T15:11:49;1.70;99.90
32215;DHT22;18708;53.124;23.190;2024-01-11T15:14:15;1.70;99.90
32215;DHT22;18708;53.124;23.190;2024-01-11T15:16:42;1.70;99.90
32215;DHT22;18708;53.124;23.190;2024-01-11T15:19:09;1.70;99.90
32215;DHT22;18708;53.124;23.190;2024-01-11T15:21:35;1.70;99.90